This is the latest recevied weather packets stored in our database for station/object DM1MT. If no packets are shown the sender has not sent any weather packets the latest 10 day(s).
| Time | Temp. | Humidity | Pressure | Rain* | Wind** | Luminosity | Snow |
|---|---|---|---|---|---|---|---|
| 1777274913 | 11.11° C | 57% | 1014.5 hPa | 0 mm | - | 168 W/m² | - |
| 1777271773 | 7.78° C | 68% | 1014.8 hPa | 0 mm | - | 98 W/m² | - |
| 1777270590 | 6.67° C | 67% | 1014.7 hPa | 0 mm | - | 70 W/m² | - |
| 1777268734 | 5° C | 73% | 1014.5 hPa | 0 mm | - | 56 W/m² | - |
| 1777268176 | 4.44° C | 75% | 1014.5 hPa | 0 mm | - | 44 W/m² | - |
| 1777264569 | 2.22° C | 84% | 1014.1 hPa | 0 mm | - | 10 W/m² | - |
| 1777260354 | 2.78° C | 82% | 1013.8 hPa | 0 mm | - | 0 W/m² | - |
| 1777259209 | 3.33° C | 81% | 1014 hPa | 0 mm | - | 0 W/m² | - |
| 1777253189 | 5° C | 74% | 1014.2 hPa | 0 mm | - | 0 W/m² | - |
| 1777248409 | 5.56° C | 72% | 1014.3 hPa | 0 mm | - | 0 W/m² | - |
| 1777246008 | 5° C | 75% | 1014.4 hPa | 0 mm | - | 0 W/m² | - |
| 1777242415 | 6.11° C | 73% | 1014.4 hPa | 0 mm | - | 0 W/m² | - |
| 1777239995 | 6.67° C | 72% | 1014.1 hPa | 0 mm | - | 0 W/m² | - |
| 1777238809 | 7.22° C | 71% | 1014.1 hPa | 0 mm | - | 0 W/m² | - |
| 1777230982 | 12.22° C | 62% | 1013.6 hPa | 0 mm | - | 0 W/m² | - |
| 1777230408 | 12.78° C | 59% | 1013.7 hPa | 0 mm | - | 0 W/m² | - |
| 1777229832 | 13.89° C | 56% | 1013.5 hPa | 0 mm | - | 0 W/m² | - |
| 1777229218 | 14.44° C | 50% | 1013.4 hPa | 0 mm | - | 0 W/m² | - |
| 1777226828 | 16.67° C | 41% | 1013.3 hPa | 0 mm | - | 66 W/m² | - |
| 1777220828 | 17.78° C | 35% | 1013.6 hPa | 0 mm | - | 253 W/m² | - |
| 1777220208 | 17.78° C | 36% | 1013.6 hPa | 0 mm | - | 262 W/m² | - |
| 1777217208 | 17.78° C | 38% | 1014.1 hPa | 0 mm | - | 311 W/m² | - |
| 1777214208 | 16.67° C | 42% | 1014.2 hPa | 0 mm | - | 264 W/m² | - |
| 1777211817 | 17.22° C | 40% | 1014.2 hPa | 0 mm | - | 232 W/m² | - |
| 1777211213 | 17.22° C | 39% | 1014.3 hPa | 0 mm | - | 128 W/m² | - |
* Rain latest hour (hover to see other rain measurements)
** Current wind speed in m/s (hover to see current wind gust speed)